Auckland, New Zealand

6:07 PM NZDT on December 25, 2014 (GMT +1300)
IMANUKAU4 | Change Station
CLOSE
Current Station
Personal Weather Station
Location: Papatoetoe, MANUKAU
Elevation: 52 ft
Nearby Weather Stations

Elev 52 ft 36.97 °S, 174.88 °E | Updated 3 seconds ago

Mostly Cloudy
Mostly Cloudy
70.7 °F
Feels Like 71 °F
N
4.5
Wind Variable Wind from NNW
Gusts 12.1 mph

Today
High -- | Low -- °F
--% Chance of Precip.
Yesterday
High -- | Low -- °F
Precip. -- in
5:59 AM 8:41 PM
Waxing Crescent, 13% visible
Pressure 30.24 in
Visibility 6.2 miles
Clouds Mostly Cloudy 4500 ft
Heat Index 71 °F
Dew Point 64 °F
Humidity 80%
Rainfall 0.00 in
Snow Depth Not available.
UV 2 out of 12
Pollen Not available.
Air Quality Not available.
Flu Activity Not available.
METAR NZAA 250430Z AUTO 01008KT 340V050 9999 BKN045/// 21/13 Q1024 NOSIG

More Conditions Fewer Conditions

Pressure 30.24 in
Visibility 6.2 miles
Clouds Mostly Cloudy 4500 ft
Heat Index 71 °F
Dew Point 64 °F
Humidity 80%
Rainfall 0.00 in
Snow Depth Not available.
UV 2 out of 12
Pollen Not available.
Air Quality Not available.
Flu Activity Not available.
METAR NZAA 250430Z AUTO 01008KT 340V050 9999 BKN045/// 21/13 Q1024 NOSIG

More Conditions Fewer Conditions

10-Day Weather Forecast

Almanac

Astronomy

Dec. 25, 2014 Rise Set
Actual Time
Civil Twilight
Nautical Twilight
Astronomical Twilight
Moon
Length of Visible Light
Length of Day
Tomorrow will be .
, % of the Moon is Illuminated

Today's Extremes

Country Highs Country Lows

Community

WunderPhotos

Upload Photos

1,780,243 photos uploaded!

WunderBlogs® & News

Nearby

Air Quality

  Air Quality AQ Index Pollutant
Not available.

Snow Depth

Station Depth Elevation

Earthquake Activity

City Distance Mag. Time & Date
Minimum magnitude displayed is 2.5.

Coastal Water Temperatures

Place Temperature

Nearby Weather Stations